Flight Track Log - Related Links

Times and Time Zones

All times are in EDT time to prevent confusion due to time zone crossing. See the UAL4536 flight status page for this flight to view local times or setup timezone preferences in your user account.

Time Position Orientation Groundspeed Altitude Reporting Facility
EDT Latitude Longitude Course Direction KTS MPH feet Rate Location/Type
Sun 02:19:38 PM 29.9614 -95.3411 90° East 156 180 800  Level Houston Center
Sun 02:21:04 PM 29.9342 -95.2519 109° East 249 287 3,100 1,297 Climbing Houston Center
Sun 02:22:06 PM 29.9211 -95.1689 100° East 258 297 4,000 435 Climbing Houston Center
Sun 02:23:00 PM 29.9834 -94.7612 90° East  Level FlightAware Approximate
Sun 02:23:08 PM 29.9286 -95.0828 84° East 272 313 4,000  Level Houston Center
Sun 02:24:00 PM 29.9833 -94.6182 90° East  Level FlightAware Approximate
Sun 02:24:09 PM 29.9392 -94.9869 83° East 274 315 6,200  Level Houston Center
Sun 02:25:00 PM 29.9834 -94.4788 90° East  Level FlightAware Approximate
Sun 02:25:10 PM 29.9497 -94.8989 82° East 273 314 8,800  Level Houston Center
Sun 02:26:14 PM 29.9592 -94.8192 82° East 278 320 10,300 1,143 Climbing Houston Center
Sun 02:27:16 PM 29.9733 -94.6917 83° East 325 374 11,200 1,355 Climbing Houston Center
Sun 02:28:18 PM 29.9858 -94.5786 83° East 350 403 13,100 1,694 Climbing Houston Center
Sun 02:29:20 PM 29.9903 -94.4644 87° East 357 411 14,700 1,344 Climbing Houston Center
Sun 02:30:23 PM 29.9944 -94.3464 88° East 367 422 15,900 960 Climbing Houston Center
Sun 02:31:25 PM 30.0064 -94.2228 84° East 386 444 16,700 968 Climbing Houston Center
Sun 02:32:27 PM 30.0258 -94.0683 82° East 404 465 17,900 1,065 Climbing Houston Center
Sun 02:33:29 PM 30.0425 -93.9372 82° East 412 474 18,900 968 Climbing Houston Center
Sun 02:34:31 PM 30.0583 -93.8036 82° East 421 484 19,900 968 Climbing Houston Center
Sun 02:35:33 PM 30.0747 -93.6675 82° East 430 495 20,900 968 Climbing Houston Center
Sun 02:36:35 PM 30.0903 -93.5286 83° East 441 507 21,900 1,210 Climbing Houston Center
Sun 02:37:37 PM 30.1100 -93.3597 82° East 447 514 23,400 1,344 Climbing Houston Center
Sun 02:38:40 PM 30.1267 -93.2197 82° East 446 513 24,700 1,248 Climbing Houston Center
Sun 02:39:42 PM 30.1447 -93.0811 81° East 442 509 26,000 1,258 Climbing Houston Center
Sun 02:40:44 PM 30.1833 -92.9497 71° East 435 501 27,300 1,065 Climbing Houston Center
Sun 02:41:46 PM 30.2369 -92.8281 63° Northeast 427 491 28,200 919 Climbing Houston Center
Sun 02:42:48 PM 30.3022 -92.6736 64° Northeast 444 511 29,200 871 Climbing Houston Center
Sun 02:43:50 PM 30.3589 -92.5425 63° Northeast 454 522 30,000 919 Climbing Houston Center
Sun 02:44:52 PM 30.4164 -92.4067 64° Northeast 468 539 31,100 1,065 Climbing Houston Center
Sun 02:45:54 PM 30.4728 -92.2739 64° Northeast 472 543 32,200 1,161 Climbing Houston Center
Sun 02:46:56 PM 30.5428 -92.1094 64° Northeast 477 549 33,500 1,161 Climbing Houston Center
Sun 02:47:58 PM 30.6017 -91.9697 64° Northeast 482 555 34,600 1,056 Climbing Houston Center
Sun 02:49:01 PM 30.6597 -91.8319 64° Northeast 479 551 35,700 1,008 Climbing Houston Center
Sun 02:50:03 PM 30.7181 -91.6936 64° Northeast 479 551 36,700 629 Climbing Houston Center
Sun 02:51:05 PM 30.7753 -91.5553 64° Northeast 479 551 37,000 145 Climbing Houston Center
Sun 02:52:07 PM 30.8475 -91.3817 64° Northeast 499 574 37,000  Level Houston Center
Sun 02:53:09 PM 30.9094 -91.2336 64° Northeast 509 586 37,000  Level Houston Center
Sun 02:54:11 PM 30.9647 -91.0981 65° Northeast 510 587 37,000  Level Houston Center
Sun 02:55:13 PM 31.0375 -90.9186 65° Northeast 508 585 37,000  Level Houston Center
Sun 02:56:15 PM 31.0972 -90.7728 64° Northeast 501 577 37,000  Level Houston Center
Sun 02:57:17 PM 31.1581 -90.6247 64° Northeast 503 579 37,000  Level Houston Center
Sun 02:58:20 PM 31.2167 -90.4781 65° Northeast 499 574 37,000  Level Houston Center
Sun 02:59:22 PM 31.2758 -90.3306 65° Northeast 500 575 37,000  Level Houston Center
Sun 03:00:24 PM 31.3508 -90.1972 57° Northeast 491 565 37,000  Level Houston Center
Sun 03:01:26 PM 31.4422 -90.0769 48° Northeast 492 566 37,000  Level Houston Center
Sun 03:02:28 PM 31.5486 -89.9325 49° Northeast 488 562 37,000  Level Houston Center
Sun 03:03:30 PM 31.6394 -89.8122 48° Northeast 491 565 37,000  Level Houston Center
Sun 03:04:09 PM 31.6956 -89.7372 49° Northeast 488 562 37,000  Level Memphis Center
Sun 03:05:09 PM 31.7825 -89.6194 49° Northeast 488 562 37,000  Level Memphis Center
Sun 03:05:34 PM 31.8128 -89.5778 49° Northeast 489 563 37,000  Level Houston Center
Sun 03:06:36 PM 31.9172 -89.4350 49° Northeast 481 554 37,000  Level Houston Center
Sun 03:07:09 PM 31.9583 -89.3803 48° Northeast 483 556 37,000  Level Memphis Center
Sun 03:08:09 PM 32.0428 -89.2667 49° Northeast 473 544 37,000  Level Memphis Center
Sun 03:09:09 PM 32.1275 -89.1528 49° Northeast 462 532 37,000  Level Memphis Center
Sun 03:10:09 PM 32.2119 -89.0389 49° Northeast 462 532 37,000  Level Memphis Center
Sun 03:11:09 PM 32.2961 -88.9219 50° Northeast 462 532 37,000  Level Memphis Center
Sun 03:12:09 PM 32.3783 -88.8050 50° Northeast 462 532 37,000  Level Memphis Center
Sun 03:13:09 PM 32.4453 -88.6711 59° Northeast 467 537 37,000  Level Memphis Center
Sun 03:14:09 PM 32.5142 -88.5194 62° Northeast 467 537 37,000  Level Memphis Center
Sun 03:15:09 PM 32.5769 -88.3825 61° Northeast 467 537 37,000  Level Memphis Center
Sun 03:16:55 PM 32.6883 -88.1531 60° Northeast 450 518 37,000  Level Atlanta Center
Sun 03:17:55 PM 32.7406 -88.0219 65° Northeast 457 526 37,000  Level Atlanta Center
Sun 03:18:55 PM 32.8056 -87.8842 61° Northeast 469 540 37,000  Level Atlanta Center
Sun 03:19:55 PM 32.8703 -87.7436 61° Northeast 469 540 37,000  Level Atlanta Center
Sun 03:20:55 PM 32.9328 -87.6078 61° Northeast 469 540 37,000  Level Atlanta Center
Sun 03:21:55 PM 32.9972 -87.4667 61° Northeast 469 540 37,000  Level Atlanta Center
Sun 03:22:55 PM 33.0664 -87.3058 63° Northeast 481 554 37,000  Level Atlanta Center
Sun 03:23:55 PM 33.1283 -87.1642 62° Northeast 486 559 37,000  Level Atlanta Center
Sun 03:24:55 PM 33.1922 -87.0375 59° Northeast 486 559 37,000  Level Atlanta Center
Sun 03:25:55 PM 33.2417 -86.8853 69° East 491 565 37,000  Level Atlanta Center
Sun 03:26:55 PM 33.2703 -86.7247 78° East 486 559 37,000  Level Atlanta Center
Sun 03:27:55 PM 33.2944 -86.5764 79° East 481 554 37,000  Level Atlanta Center
Sun 03:28:55 PM 33.3250 -86.3981 78° East 499 574 37,000  Level Atlanta Center
Sun 03:29:55 PM 33.3533 -86.2247 79° East 499 574 37,000  Level Atlanta Center
Sun 03:30:55 PM 33.3789 -86.0614 79° East 504 580 37,000  Level Atlanta Center
Sun 03:31:55 PM 33.4047 -85.8928 80° East 504 580 37,000  Level Atlanta Center
Sun 03:32:55 PM 33.4319 -85.7389 78° East 497 572 37,000  Level Atlanta Center
Sun 03:33:55 PM 33.4569 -85.5750 80° East 492 566 37,000  Level Atlanta Center
Sun 03:34:55 PM 33.4797 -85.4111 80° East 498 573 37,000  Level Atlanta Center
Sun 03:35:55 PM 33.5067 -85.2472 79° East 498 573 37,000  Level Atlanta Center
Sun 03:36:55 PM 33.5311 -85.0856 80° East 498 573 37,000  Level Atlanta Center
Sun 03:37:55 PM 33.5553 -84.9236 80° East 498 573 37,000 -350 Level Atlanta Center
Sun 03:38:55 PM 33.5814 -84.7594 79° East 498 573 36,300 -750 Descending Atlanta Center
Sun 03:39:55 PM 33.6008 -84.6175 81° East 498 573 35,500 -650 Descending Atlanta Center
Sun 03:40:55 PM 33.6244 -84.4356 81° East 498 573 35,000 -250 Descending Atlanta Center
Sun 03:41:55 PM 33.6689 -84.2833 71° East 486 559 35,000  Level Atlanta Center
Sun 03:42:55 PM 33.7169 -84.1236 70° East 490 564 35,000  Level Atlanta Center
Sun 03:43:55 PM 33.7586 -83.9689 72° East 498 573 35,000  Level Atlanta Center
Sun 03:44:55 PM 33.8044 -83.8114 71° East 493 567 35,000  Level Atlanta Center
Sun 03:45:55 PM 33.8478 -83.6536 72° East 493 567 35,000 -400 Level Atlanta Center
Sun 03:46:55 PM 33.8911 -83.4983 71° East 493 567 34,200 -1,200 Descending Atlanta Center
Sun 03:47:55 PM 33.9322 -83.3428 72° East 483 556 32,600 -1,400 Descending Atlanta Center
Sun 03:48:55 PM 33.9689 -83.2097 72° East 483 556 31,400 -1,350 Descending Atlanta Center
Sun 03:49:55 PM 34.0136 -83.0489 71° East 490 564 29,900 -1,200 Descending Atlanta Center
Sun 03:50:55 PM 34.0581 -82.8878 72° East 495 570 29,000 -450 Descending Atlanta Center
Sun 03:51:55 PM 34.1003 -82.7292 72° East 500 575 29,000 -200 Level Atlanta Center
Sun 03:52:55 PM 34.1464 -82.5528 72° East 500 575 28,600 -1,400 Descending Atlanta Center
Sun 03:53:55 PM 34.1903 -82.3939 71° East 500 575 26,200 -2,250 Descending Atlanta Center
Sun 03:54:55 PM 34.2297 -82.2372 73° East 500 575 24,100 -1,550 Descending Atlanta Center
Sun 03:55:55 PM 34.2922 -82.0978 61° Northeast 491 565 23,100 -1,850 Descending Atlanta Center
Sun 03:56:55 PM 34.3783 -81.9925 45° Northeast 444 511 20,400 -2,650 Descending Atlanta Center
Sun 03:57:55 PM 34.4581 -81.8900 47° Northeast 438 504 17,800 -2,450 Descending Atlanta Center
Sun 03:58:55 PM 34.5356 -81.7919 46° Northeast 411 473 15,500 -2,350 Descending Atlanta Center
Sun 03:59:55 PM 34.6108 -81.6992 45° Northeast 393 452 13,100 -2,200 Descending Atlanta Center
Sun 04:00:55 PM 34.6844 -81.6139 44° Northeast 366 421 11,100 -1,050 Descending Atlanta Center
Sun 04:01:55 PM 34.7453 -81.5336 47° Northeast 335 386 11,000 -250 Descending Atlanta Center
Sun 04:02:55 PM 34.7936 -81.4411 58° Northeast 318 366 10,600 -675 Descending Atlanta Center
Sun 04:03:15 PM 34.7992 -81.4081 78° East 319 367 10,100 -1,400 Descending Atlanta Center
Sun 04:03:55 PM 34.8164 -81.3417 72° East 308 354 9,200 -1,377 Descending Atlanta Center
Sun 04:04:16 PM 34.8197 -81.3036 84° East 303 349 8,700 -1,400 Descending Atlanta Center
Sun 04:04:55 PM 34.8289 -81.2453 79° East 298 343 7,800 -1,200 Descending Atlanta Center
Sun 04:05:11 PM 34.8325 -81.2197 80° East 286 329 7,600 -800 Descending Atlanta Center
Sun 04:05:55 PM 34.8414 -81.1561 80° East 279 321 7,000 -716 Descending Atlanta Center
Sun 04:06:18 PM 34.8511 -81.1256 69° East 245 282 6,800 -1,000 Descending Atlanta Center
Sun 04:06:55 PM 34.8836 -81.0864 45° Northeast 244 281 6,000 -1,377 Descending Atlanta Center
Sun 04:07:19 PM 34.9039 -81.0653 40° Northeast 258 297 5,400 -1,000 Descending Atlanta Center
Sun 04:07:55 PM 34.9367 -81.0314 40° Northeast 239 275 5,000 -444 Descending Atlanta Center
Sun 04:08:13 PM 34.9528 -81.0156 39° Northeast 250 288 5,000  Level Atlanta Center
Sun 04:08:55 PM 34.9853 -80.9814 41° Northeast 233 268 5,000 -197 Level Atlanta Center
Sun 04:09:14 PM 34.9975 -80.9683 41° Northeast 210 242 4,800 -975 Descending Atlanta Center
Sun 04:10:15 PM 35.0514 -80.9536 13° North 206 237 3,700 -1,131 Descending Atlanta Center
Sun 04:11:16 PM 35.1122 -80.9589 356° North 198 228 2,500 -1,180 Descending Atlanta Center

Login

Don't have an account? Register now (free) for customized features, flight alerts, and more!